Time;durP1;ratioP1;P1;durP2;ratioP2;P2;SDS_P1;SDS_P2;PMS_P1;PMS_P2;Temp;Humidity;BMP_temperature;BMP_pressure;BME280_temperature;BME280_humidity;BME280_pressure;Samples;Min_cycle;Max_cycle;Signal;HPM_P1;HPM_P2
2023/12/25 00:01:27;;;;;;;19.50;3.70;;;;;;;;;;4991247;28;20050;-69
2023/12/25 00:03:53;;;;;;;24.77;3.78;;;;;;;;;;4992339;28;20074;-69
2023/12/25 00:06:19;;;;;;;15.00;3.33;;;;;;;;;;4990564;28;20422;-69
2023/12/25 00:08:48;;;;;;;19.73;3.58;;;;;;;;;;4992732;28;20525;-69
2023/12/25 00:11:14;;;;;;;23.25;3.50;;;;;;;;;;4992700;28;20045;-69
2023/12/25 00:13:40;;;;;;;17.05;2.72;;;;;;;;;;4992020;28;20042;-69
2023/12/25 00:16:06;;;;;;;21.13;3.15;;;;;;;;;;4990995;28;20133;-69
2023/12/25 00:18:32;;;;;;;18.42;3.25;;;;;;;;;;4995104;28;20129;-69
2023/12/25 00:20:58;;;;;;;18.73;3.38;;;;;;;;;;5009964;28;20052;-69
2023/12/25 00:23:24;;;;;;;21.25;3.20;;;;;;;;;;5011666;28;20038;-69
2023/12/25 00:25:49;;;;;;;19.13;3.42;;;;;;;;;;5003372;28;20049;-68
2023/12/25 00:28:15;;;;;;;19.67;3.17;;;;;;;;;;4992034;28;20042;-68
2023/12/25 00:30:42;;;;;;;24.20;3.40;;;;;;;;;;4991675;28;20058;-68
2023/12/25 00:33:08;;;;;;;14.90;2.80;;;;;;;;;;4990444;28;20046;-68
2023/12/25 00:35:34;;;;;;;16.75;2.63;;;;;;;;;;4990579;28;20065;-68
2023/12/25 00:38:00;;;;;;;13.13;2.75;;;;;;;;;;4991534;28;20486;-68
2023/12/25 00:40:26;;;;;;;18.08;3.10;;;;;;;;;;4991691;28;20121;-68
2023/12/25 00:42:52;;;;;;;12.57;2.63;;;;;;;;;;4992038;28;20576;-68
2023/12/25 00:45:18;;;;;;;11.85;2.47;;;;;;;;;;4991384;28;20093;-68
2023/12/25 00:47:44;;;;;;;8.30;1.83;;;;;;;;;;4991757;28;20400;-68
2023/12/25 00:50:10;;;;;;;17.52;2.60;;;;;;;;;;4991457;28;20047;-68
2023/12/25 00:52:36;;;;;;;10.35;2.20;;;;;;;;;;4991330;28;20536;-68
2023/12/25 00:55:02;;;;;;;15.07;2.40;;;;;;;;;;4991545;28;20053;-68
2023/12/25 00:57:29;;;;;;;9.75;2.17;;;;;;;;;;4991722;28;20058;-68
2023/12/25 00:59:55;;;;;;;14.43;2.80;;;;;;;;;;4991199;28;20038;-68
2023/12/25 01:02:21;;;;;;;15.93;2.80;;;;;;;;;;4991565;28;20049;-68
2023/12/25 01:04:47;;;;;;;15.32;2.75;;;;;;;;;;4989848;28;20050;-68
2023/12/25 01:07:13;;;;;;;9.00;2.20;;;;;;;;;;4990944;28;20370;-68
2023/12/25 01:09:40;;;;;;;14.40;2.75;;;;;;;;;;4991282;28;20050;-68
2023/12/25 01:12:07;;;;;;;13.68;2.47;;;;;;;;;;4991386;28;20042;-68
2023/12/25 01:14:33;;;;;;;15.40;2.95;;;;;;;;;;4990888;28;20413;-68
2023/12/25 01:17:00;;;;;;;15.25;2.65;;;;;;;;;;4991158;28;20045;-68
2023/12/25 01:19:26;;;;;;;12.85;2.92;;;;;;;;;;5001365;28;20046;-68
2023/12/25 01:21:52;;;;;;;13.63;2.58;;;;;;;;;;5008830;28;20125;-68
2023/12/25 01:24:18;;;;;;;13.27;2.35;;;;;;;;;;5010449;28;20488;-68
2023/12/25 01:26:44;;;;;;;12.07;2.20;;;;;;;;;;4994628;28;20129;-68
2023/12/25 01:29:10;;;;;;;18.17;2.55;;;;;;;;;;4989952;28;20124;-68
2023/12/25 01:31:36;;;;;;;20.00;2.55;;;;;;;;;;4990640;28;20567;-68
2023/12/25 01:34:03;;;;;;;16.40;2.75;;;;;;;;;;4990850;28;20484;-68
2023/12/25 01:36:29;;;;;;;16.55;2.60;;;;;;;;;;4990708;28;20046;-68
2023/12/25 01:38:55;;;;;;;15.07;3.17;;;;;;;;;;4990763;28;20092;-68
2023/12/25 01:41:21;;;;;;;14.55;3.00;;;;;;;;;;4991049;28;20035;-68
2023/12/25 01:43:47;;;;;;;22.63;2.70;;;;;;;;;;4990368;28;20041;-68
2023/12/25 01:46:13;;;;;;;17.25;2.60;;;;;;;;;;4990638;28;20065;-68
2023/12/25 01:48:41;;;;;;;14.45;2.53;;;;;;;;;;4989134;28;20046;-68
2023/12/25 01:51:07;;;;;;;15.55;2.90;;;;;;;;;;4989955;28;20133;-68
2023/12/25 01:53:33;;;;;;;16.85;2.80;;;;;;;;;;4990648;28;20088;-68
2023/12/25 01:56:00;;;;;;;20.25;2.80;;;;;;;;;;4990565;28;20049;-68
2023/12/25 01:58:26;;;;;;;13.30;2.65;;;;;;;;;;4990163;28;20077;-68
2023/12/25 02:00:52;;;;;;;13.73;2.17;;;;;;;;;;4990537;28;20364;-68
2023/12/25 02:03:18;;;;;;;13.15;2.10;;;;;;;;;;4990455;28;20524;-68
2023/12/25 02:05:44;;;;;;;13.07;2.15;;;;;;;;;;4990011;28;20038;-68
2023/12/25 02:08:14;;;;;;;13.60;2.25;;;;;;;;;;4990502;28;20038;-68
2023/12/25 02:10:40;;;;;;;11.93;2.10;;;;;;;;;;4990479;28;20046;-68
2023/12/25 02:13:06;;;;;;;13.98;2.38;;;;;;;;;;4990038;28;20039;-68
2023/12/25 02:15:33;;;;;;;10.43;1.88;;;;;;;;;;4990397;28;20046;-68
2023/12/25 02:17:59;;;;;;;10.95;2.15;;;;;;;;;;4990482;28;20129;-68
2023/12/25 02:20:25;;;;;;;10.90;2.28;;;;;;;;;;5008395;28;20180;-68
2023/12/25 02:22:51;;;;;;;12.73;2.13;;;;;;;;;;5009908;28;20129;-68
2023/12/25 02:25:20;;;;;;;14.20;2.08;;;;;;;;;;5004442;28;20056;-68
2023/12/25 02:27:46;;;;;;;12.27;2.28;;;;;;;;;;4989736;28;20046;-68
2023/12/25 02:30:12;;;;;;;14.90;2.20;;;;;;;;;;4989850;28;20100;-68
2023/12/25 02:32:38;;;;;;;8.07;1.88;;;;;;;;;;4990363;28;20085;-68
2023/12/25 02:35:04;;;;;;;10.30;2.10;;;;;;;;;;4989879;28;20042;-68
2023/12/25 02:37:30;;;;;;;12.43;1.98;;;;;;;;;;4990163;28;20125;-68
2023/12/25 02:39:56;;;;;;;13.98;2.00;;;;;;;;;;4989916;28;20130;-68
2023/12/25 02:42:22;;;;;;;14.50;1.85;;;;;;;;;;4993404;28;20042;-68
2023/12/25 02:44:48;;;;;;;6.13;1.90;;;;;;;;;;4993975;28;20046;-68
2023/12/25 02:47:14;;;;;;;8.50;1.75;;;;;;;;;;4993901;28;20196;-68
2023/12/25 02:49:40;;;;;;;7.80;2.05;;;;;;;;;;4993374;28;20050;-68
2023/12/25 02:52:06;;;;;;;12.48;1.98;;;;;;;;;;4993814;28;20140;-68
2023/12/25 02:54:32;;;;;;;13.68;2.13;;;;;;;;;;4993933;28;20038;-68
2023/12/25 02:56:58;;;;;;;13.40;1.90;;;;;;;;;;4993389;28;20296;-68
2023/12/25 02:59:24;;;;;;;9.80;2.20;;;;;;;;;;4993641;28;20073;-68
2023/12/25 03:01:50;;;;;;;10.23;2.10;;;;;;;;;;4992158;28;20053;-68
2023/12/25 03:04:16;;;;;;;11.40;2.17;;;;;;;;;;4993338;28;20038;-68
2023/12/25 03:06:42;;;;;;;7.03;1.33;;;;;;;;;;4993188;28;20504;-68
2023/12/25 03:09:08;;;;;;;15.50;2.08;;;;;;;;;;4993505;28;20046;-68
2023/12/25 03:11:34;;;;;;;11.20;1.50;;;;;;;;;;4991700;28;20057;-68
2023/12/25 03:14:00;;;;;;;10.73;2.05;;;;;;;;;;4993570;28;20042;-68
2023/12/25 03:16:26;;;;;;;12.85;1.88;;;;;;;;;;4993538;28;20046;-68
2023/12/25 03:18:52;;;;;;;7.72;1.50;;;;;;;;;;4998826;28;20152;-68
2023/12/25 03:21:18;;;;;;;9.43;1.67;;;;;;;;;;5012492;28;20075;-68
2023/12/25 03:23:44;;;;;;;8.35;1.52;;;;;;;;;;5012761;28;20045;-68
2023/12/25 03:26:10;;;;;;;8.48;1.98;;;;;;;;;;5001333;28;20584;-68
2023/12/25 03:28:36;;;;;;;7.63;1.30;;;;;;;;;;4993017;28;20137;-68
2023/12/25 03:31:02;;;;;;;7.05;1.55;;;;;;;;;;4993091;28;20061;-68
2023/12/25 03:33:28;;;;;;;9.23;1.67;;;;;;;;;;4991306;28;20151;-68
2023/12/25 03:35:54;;;;;;;8.50;1.27;;;;;;;;;;4991500;28;20085;-68
2023/12/25 03:38:20;;;;;;;11.00;2.28;;;;;;;;;;4992810;28;20129;-68
2023/12/25 03:40:46;;;;;;;9.57;1.77;;;;;;;;;;4992711;28;20121;-68
2023/12/25 03:43:12;;;;;;;11.98;1.65;;;;;;;;;;4992830;28;20477;-68
2023/12/25 03:45:38;;;;;;;7.82;1.88;;;;;;;;;;4992923;28;20504;-68
2023/12/25 03:48:04;;;;;;;11.38;1.65;;;;;;;;;;4992398;28;20039;-68
2023/12/25 03:50:31;;;;;;;8.48;1.42;;;;;;;;;;4991067;28;20394;-68
2023/12/25 03:52:57;;;;;;;8.25;1.42;;;;;;;;;;4992030;28;20042;-68
2023/12/25 03:55:23;;;;;;;8.95;1.55;;;;;;;;;;4992769;28;20092;-68
2023/12/25 03:57:49;;;;;;;9.38;1.17;;;;;;;;;;4990786;28;20054;-68
2023/12/25 04:00:15;;;;;;;6.75;1.23;;;;;;;;;;4992552;28;20105;-68
2023/12/25 04:02:41;;;;;;;9.02;1.70;;;;;;;;;;4992746;28;20073;-68
2023/12/25 04:05:09;;;;;;;9.68;2.05;;;;;;;;;;4992190;28;20034;-68
2023/12/25 04:07:35;;;;;;;7.32;1.60;;;;;;;;;;4992459;28;20046;-68
2023/12/25 04:10:01;;;;;;;9.32;1.42;;;;;;;;;;4992092;28;20053;-68
2023/12/25 04:12:27;;;;;;;10.82;1.42;;;;;;;;;;4990599;28;20084;-68
2023/12/25 04:14:54;;;;;;;11.15;1.55;;;;;;;;;;4992112;28;20454;-68
2023/12/25 04:17:20;;;;;;;8.70;1.45;;;;;;;;;;4992509;28;20074;-68
2023/12/25 04:19:46;;;;;;;11.80;1.50;;;;;;;;;;5004933;28;20074;-68
2023/12/25 04:22:13;;;;;;;5.68;1.05;;;;;;;;;;5010136;28;20048;-68
2023/12/25 04:24:39;;;;;;;9.48;1.85;;;;;;;;;;5011882;28;20473;-68
2023/12/25 04:27:05;;;;;;;10.65;1.42;;;;;;;;;;4992794;28;20038;-68
2023/12/25 04:29:31;;;;;;;12.45;1.77;;;;;;;;;;4991872;28;20038;-68
2023/12/25 04:31:57;;;;;;;8.25;1.55;;;;;;;;;;4992126;28;20497;-68
2023/12/25 04:34:24;;;;;;;8.10;1.42;;;;;;;;;;4991684;28;20046;-68
2023/12/25 04:36:50;;;;;;;7.65;1.40;;;;;;;;;;4991951;28;20125;-68
2023/12/25 04:39:16;;;;;;;8.05;1.50;;;;;;;;;;4991478;28;20038;-68
2023/12/25 04:41:42;;;;;;;12.18;1.52;;;;;;;;;;4991491;28;20537;-68
2023/12/25 04:44:08;;;;;;;8.40;1.85;;;;;;;;;;4991829;28;20088;-68
2023/12/25 04:46:35;;;;;;;4.50;1.48;;;;;;;;;;4991490;28;20038;-68
2023/12/25 04:49:02;;;;;;;12.32;1.30;;;;;;;;;;4991189;28;20054;-68
2023/12/25 04:51:28;;;;;;;9.10;1.55;;;;;;;;;;4991613;28;20050;-68
2023/12/25 04:53:54;;;;;;;12.60;1.65;;;;;;;;;;4991608;28;20076;-68
2023/12/25 04:56:20;;;;;;;8.10;1.40;;;;;;;;;;4991224;28;20133;-68
2023/12/25 04:58:46;;;;;;;7.60;1.40;;;;;;;;;;4991545;28;20424;-68
2023/12/25 05:01:12;;;;;;;7.18;1.40;;;;;;;;;;4991503;28;20049;-68
2023/12/25 05:03:38;;;;;;;9.98;1.60;;;;;;;;;;4990665;28;20038;-68
2023/12/25 05:06:04;;;;;;;12.15;1.58;;;;;;;;;;4990912;28;20502;-68
2023/12/25 05:08:30;;;;;;;11.25;1.70;;;;;;;;;;4991099;28;20042;-68
2023/12/25 05:10:56;;;;;;;8.02;1.85;;;;;;;;;;4989668;28;20039;-68
2023/12/25 05:13:22;;;;;;;10.63;1.48;;;;;;;;;;4990876;28;20084;-68
2023/12/25 05:15:48;;;;;;;7.45;1.83;;;;;;;;;;4991280;28;20113;-68
2023/12/25 05:18:14;;;;;;;11.98;1.80;;;;;;;;;;4991546;28;20038;-68
2023/12/25 05:20:40;;;;;;;8.45;1.80;;;;;;;;;;5010720;28;20125;-68
2023/12/25 05:23:06;;;;;;;8.35;1.23;;;;;;;;;;5010885;28;20041;-68
2023/12/25 05:25:32;;;;;;;6.47;1.48;;;;;;;;;;5004136;28;20560;-68
2023/12/25 05:27:59;;;;;;;9.55;1.33;;;;;;;;;;4991155;28;20042;-68
2023/12/25 05:30:24;;;;;;;11.65;1.60;;;;;;;;;;4990784;28;20089;-68
2023/12/25 05:32:51;;;;;;;9.80;1.15;;;;;;;;;;4990479;28;20050;-68
2023/12/25 05:35:17;;;;;;;11.55;1.95;;;;;;;;;;4990779;28;20050;-68
2023/12/25 05:37:43;;;;;;;9.82;1.95;;;;;;;;;;4990543;28;20057;-68
2023/12/25 05:40:09;;;;;;;6.35;1.52;;;;;;;;;;4990280;28;20125;-68
2023/12/25 05:42:35;;;;;;;9.10;2.00;;;;;;;;;;4989497;28;20046;-68
2023/12/25 05:45:02;;;;;;;12.45;1.38;;;;;;;;;;4990720;28;20448;-68
2023/12/25 05:47:28;;;;;;;7.45;1.67;;;;;;;;;;4989994;28;20477;-68
2023/12/25 05:49:54;;;;;;;7.40;1.38;;;;;;;;;;4990486;28;20068;-68
2023/12/25 05:52:20;;;;;;;7.45;1.60;;;;;;;;;;4990638;28;20046;-68
2023/12/25 05:54:46;;;;;;;8.63;1.65;;;;;;;;;;4990472;28;20150;-68
2023/12/25 05:57:12;;;;;;;6.55;1.00;;;;;;;;;;4990548;28;20045;-68
2023/12/25 05:59:38;;;;;;;12.65;1.98;;;;;;;;;;4990386;28;20042;-68
2023/12/25 06:02:04;;;;;;;8.32;1.42;;;;;;;;;;4988977;28;20604;-68
2023/12/25 06:04:31;;;;;;;7.13;1.10;;;;;;;;;;4990451;28;20452;-68
2023/12/25 06:06:57;;;;;;;7.15;1.83;;;;;;;;;;4990075;28;20042;-68
2023/12/25 06:09:25;;;;;;;9.15;1.48;;;;;;;;;;4990001;28;20074;-68
2023/12/25 06:11:51;;;;;;;13.55;2.40;;;;;;;;;;4990459;28;20054;-68
2023/12/25 06:14:17;;;;;;;9.75;1.42;;;;;;;;;;4990433;28;20097;-68
2023/12/25 06:16:43;;;;;;;9.15;1.65;;;;;;;;;;4991618;28;20042;-68
2023/12/25 06:19:09;;;;;;;9.98;1.60;;;;;;;;;;5002529;28;20141;-68
2023/12/25 06:21:35;;;;;;;6.30;1.67;;;;;;;;;;5013954;28;20053;-68
2023/12/25 06:24:01;;;;;;;8.07;1.48;;;;;;;;;;5013534;28;20081;-68
2023/12/25 06:26:27;;;;;;;12.27;1.88;;;;;;;;;;5000484;28;20042;-68
2023/12/25 06:28:53;;;;;;;7.80;1.40;;;;;;;;;;4994517;28;20081;-68
2023/12/25 06:31:19;;;;;;;9.38;1.52;;;;;;;;;;4992391;28;20058;-68
2023/12/25 06:33:45;;;;;;;9.20;1.30;;;;;;;;;;4994285;28;20390;-68
2023/12/25 06:36:11;;;;;;;8.18;1.42;;;;;;;;;;4993941;28;20129;-68
2023/12/25 06:38:37;;;;;;;12.50;2.15;;;;;;;;;;4993661;28;20134;-68
2023/12/25 06:41:03;;;;;;;4.88;1.15;;;;;;;;;;4994127;28;20396;-68
2023/12/25 06:43:29;;;;;;;6.15;1.40;;;;;;;;;;4994045;28;20042;-68
2023/12/25 06:45:55;;;;;;;8.98;1.48;;;;;;;;;;4993776;28;20050;-68
2023/12/25 06:48:21;;;;;;;8.27;1.63;;;;;;;;;;4992372;28;20038;-68
2023/12/25 06:50:48;;;;;;;7.00;1.23;;;;;;;;;;4993611;28;20042;-68
2023/12/25 06:53:14;;;;;;;10.25;1.63;;;;;;;;;;4993532;28;20066;-68
2023/12/25 06:55:40;;;;;;;11.02;1.95;;;;;;;;;;4994216;28;20520;-67
2023/12/25 06:58:06;;;;;;;13.93;1.33;;;;;;;;;;4993850;28;20081;-67
2023/12/25 07:00:32;;;;;;;8.15;1.63;;;;;;;;;;4993482;28;20074;-67
2023/12/25 07:02:58;;;;;;;6.47;1.35;;;;;;;;;;4993348;28;20632;-67
2023/12/25 07:05:24;;;;;;;6.22;1.40;;;;;;;;;;4993611;28;20039;-67
2023/12/25 07:07:50;;;;;;;10.00;1.83;;;;;;;;;;4993561;28;20500;-67
2023/12/25 07:10:16;;;;;;;5.75;1.10;;;;;;;;;;4993089;28;20039;-67
2023/12/25 07:12:42;;;;;;;8.02;1.52;;;;;;;;;;4993678;28;20069;-67
2023/12/25 07:15:09;;;;;;;6.03;1.30;;;;;;;;;;4993334;28;20497;-67
2023/12/25 07:17:34;;;;;;;10.00;1.60;;;;;;;;;;4992858;28;20046;-67
2023/12/25 07:20:01;;;;;;;6.45;1.55;;;;;;;;;;5008403;28;20481;-67
2023/12/25 07:22:29;;;;;;;11.02;1.67;;;;;;;;;;5012916;28;20057;-67
2023/12/25 07:24:55;;;;;;;11.98;1.67;;;;;;;;;;5011606;28;20452;-67
2023/12/25 07:27:21;;;;;;;9.48;1.52;;;;;;;;;;4992049;28;20038;-67
2023/12/25 07:29:47;;;;;;;12.38;2.05;;;;;;;;;;4992704;28;20101;-67
2023/12/25 07:32:13;;;;;;;8.52;1.45;;;;;;;;;;4992678;28;20042;-67
2023/12/25 07:34:39;;;;;;;11.43;1.73;;;;;;;;;;4991536;28;20121;-67
2023/12/25 07:37:05;;;;;;;10.63;1.63;;;;;;;;;;4993051;28;20092;-67
2023/12/25 07:39:31;;;;;;;8.77;1.65;;;;;;;;;;4992377;28;20058;-67
2023/12/25 07:41:57;;;;;;;6.90;1.50;;;;;;;;;;4993144;28;20045;-67
2023/12/25 07:44:23;;;;;;;14.45;1.80;;;;;;;;;;4991773;28;20065;-67
2023/12/25 07:46:49;;;;;;;8.60;1.73;;;;;;;;;;4992516;28;20074;-67
2023/12/25 07:49:17;;;;;;;12.95;2.13;;;;;;;;;;4992767;28;20120;-67
2023/12/25 07:51:43;;;;;;;9.88;2.10;;;;;;;;;;4992711;28;20386;-67
2023/12/25 07:54:09;;;;;;;7.93;1.55;;;;;;;;;;4991199;28;20130;-67
2023/12/25 07:56:35;;;;;;;14.13;1.83;;;;;;;;;;4992854;28;20053;-67
2023/12/25 07:59:01;;;;;;;6.63;1.23;;;;;;;;;;4992782;28;20151;-67
2023/12/25 08:01:27;;;;;;;8.98;1.65;;;;;;;;;;4992601;28;20038;-67
2023/12/25 08:03:53;;;;;;;9.00;1.80;;;;;;;;;;4991382;28;20046;-67
2023/12/25 08:06:19;;;;;;;10.00;1.92;;;;;;;;;;4992516;28;20038;-67
2023/12/25 08:08:47;;;;;;;8.32;1.30;;;;;;;;;;4992155;28;20038;-67
2023/12/25 08:11:14;;;;;;;10.60;2.03;;;;;;;;;;4992500;28;20066;-67
2023/12/25 08:13:40;;;;;;;8.88;1.50;;;;;;;;;;4992563;28;20053;-67
2023/12/25 08:16:06;;;;;;;8.93;1.55;;;;;;;;;;4990792;28;20053;-67
2023/12/25 08:18:32;;;;;;;10.73;1.90;;;;;;;;;;4995438;28;20426;-67
2023/12/25 08:20:59;;;;;;;10.15;1.65;;;;;;;;;;5011695;28;20053;-67
2023/12/25 08:23:25;;;;;;;9.48;1.63;;;;;;;;;;5011460;28;20041;-67
2023/12/25 08:25:51;;;;;;;13.43;1.67;;;;;;;;;;5003235;28;20072;-67
2023/12/25 08:28:17;;;;;;;12.65;2.13;;;;;;;;;;4991971;28;20050;-67
2023/12/25 08:30:43;;;;;;;12.55;1.92;;;;;;;;;;4991395;28;20052;-67
2023/12/25 08:33:09;;;;;;;14.32;2.15;;;;;;;;;;4990848;28;20054;-67
2023/12/25 08:35:35;;;;;;;9.07;1.88;;;;;;;;;;4991717;28;20128;-67
2023/12/25 08:38:02;;;;;;;15.10;1.70;;;;;;;;;;4991326;28;20042;-67
2023/12/25 08:40:28;;;;;;;9.70;1.75;;;;;;;;;;4991559;28;20046;-67
2023/12/25 08:42:54;;;;;;;13.32;2.47;;;;;;;;;;4990396;28;20038;-67
2023/12/25 08:45:20;;;;;;;15.65;2.10;;;;;;;;;;4991486;28;20473;-67
2023/12/25 08:47:51;;;;;;;11.13;1.67;;;;;;;;;;4991837;28;20046;-67
2023/12/25 08:50:17;;;;;;;10.07;1.60;;;;;;;;;;4991628;28;20054;-67
2023/12/25 08:52:43;;;;;;;13.88;2.15;;;;;;;;;;4991358;28;20548;-67
2023/12/25 08:55:09;;;;;;;12.30;2.00;;;;;;;;;;4991548;28;20046;-67
2023/12/25 08:57:36;;;;;;;9.15;1.65;;;;;;;;;;4991586;28;20529;-67
2023/12/25 09:00:03;;;;;;;12.18;1.80;;;;;;;;;;4990960;28;20077;-67
2023/12/25 09:02:29;;;;;;;11.15;2.25;;;;;;;;;;4991437;28;20043;-68
2023/12/25 09:04:55;;;;;;;11.52;1.90;;;;;;;;;;4991464;28;20108;-67
2023/12/25 09:07:21;;;;;;;7.50;1.90;;;;;;;;;;4990761;28;20039;-67
2023/12/25 09:09:47;;;;;;;14.82;2.05;;;;;;;;;;4991536;28;20042;-67
2023/12/25 09:12:13;;;;;;;11.50;2.00;;;;;;;;;;4991244;28;20046;-67
2023/12/25 09:14:39;;;;;;;9.77;2.13;;;;;;;;;;4990985;28;20134;-67
2023/12/25 09:17:05;;;;;;;12.45;2.13;;;;;;;;;;4991019;28;20078;-67
2023/12/25 09:19:31;;;;;;;10.68;1.92;;;;;;;;;;5002387;28;20140;-67
2023/12/25 09:21:58;;;;;;;8.88;1.90;;;;;;;;;;5010312;28;20520;-67
2023/12/25 09:24:24;;;;;;;9.38;1.92;;;;;;;;;;5010926;28;20065;-67
2023/12/25 09:26:52;;;;;;;9.77;1.48;;;;;;;;;;4994059;28;20492;-67
2023/12/25 09:29:18;;;;;;;16.33;2.75;;;;;;;;;;4990438;28;20493;-67
2023/12/25 09:31:44;;;;;;;15.45;2.42;;;;;;;;;;4991090;28;20046;-67
2023/12/25 09:34:10;;;;;;;12.50;1.83;;;;;;;;;;4991001;28;20129;-67
2023/12/25 09:36:36;;;;;;;8.88;1.80;;;;;;;;;;4990626;28;20133;-67
2023/12/25 09:39:03;;;;;;;10.18;1.52;;;;;;;;;;4990714;28;20242;-67
2023/12/25 09:41:32;;;;;;;14.15;1.90;;;;;;;;;;4989499;28;20053;-67
2023/12/25 09:44:00;;;;;;;12.23;1.88;;;;;;;;;;4989014;28;20448;-67
2023/12/25 09:46:27;;;;;;;14.63;1.95;;;;;;;;;;4990745;28;20046;-67
2023/12/25 09:48:54;;;;;;;9.07;1.85;;;;;;;;;;4990500;28;20134;-67
2023/12/25 09:51:20;;;;;;;10.57;2.00;;;;;;;;;;4989808;28;20042;-67
2023/12/25 09:53:47;;;;;;;12.07;2.38;;;;;;;;;;4990709;28;20074;-67
2023/12/25 09:56:13;;;;;;;13.23;2.35;;;;;;;;;;4990725;28;20076;-67
2023/12/25 09:58:39;;;;;;;20.02;2.55;;;;;;;;;;4990153;28;20305;-68
2023/12/25 10:01:06;;;;;;;11.85;2.10;;;;;;;;;;4990577;28;20322;-68
2023/12/25 10:03:35;;;;;;;16.98;2.45;;;;;;;;;;4990566;28;20042;-68
2023/12/25 10:06:02;;;;;;;22.02;2.40;;;;;;;;;;4990090;28;20089;-68
2023/12/25 10:08:29;;;;;;;10.60;2.00;;;;;;;;;;4990456;28;20597;-68
2023/12/25 10:10:55;;;;;;;12.77;2.05;;;;;;;;;;4989003;28;20046;-67
2023/12/25 10:13:23;;;;;;;8.93;1.50;;;;;;;;;;4990280;28;20045;-67
2023/12/25 10:15:50;;;;;;;14.80;2.45;;;;;;;;;;4990495;28;20045;-67
2023/12/25 10:18:16;;;;;;;12.32;2.60;;;;;;;;;;4991420;28;20046;-67
2023/12/25 10:20:54;;;;;;;12.90;1.95;;;;;;;;;;5009434;28;20124;-67
2023/12/25 10:23:27;;;;;;;12.52;2.35;;;;;;;;;;5010029;28;20046;-67
2023/12/25 10:25:53;;;;;;;12.77;4.55;;;;;;;;;;5001258;28;20401;-67
2023/12/25 10:28:21;;;;;;;14.05;2.53;;;;;;;;;;4989769;28;20404;-67
2023/12/25 10:30:58;;;;;;;18.02;2.45;;;;;;;;;;4990189;28;20068;-67
2023/12/25 10:33:24;;;;;;;11.57;1.92;;;;;;;;;;4990094;28;20054;-67
2023/12/25 10:36:00;;;;;;;11.75;2.30;;;;;;;;;;4989843;28;20069;-67
2023/12/25 10:38:26;;;;;;;12.05;2.03;;;;;;;;;;4990082;28;20082;-67
2023/12/25 10:40:52;;;;;;;12.13;2.38;;;;;;;;;;4988628;28;20085;-67
2023/12/25 10:43:19;;;;;;;14.23;2.38;;;;;;;;;;4989698;28;20493;-67
2023/12/25 10:45:45;;;;;;;16.38;3.22;;;;;;;;;;4990113;28;20092;-67
2023/12/25 10:48:11;;;;;;;10.45;2.72;;;;;;;;;;4989866;28;20319;-67
2023/12/25 10:50:38;;;;;;;14.63;2.53;;;;;;;;;;4989568;28;20050;-67
2023/12/25 10:53:05;;;;;;;9.20;2.58;;;;;;;;;;4990121;28;20043;-67
2023/12/25 10:55:36;;;;;;;9.80;2.58;;;;;;;;;;4989959;28;20044;-67
2023/12/25 10:58:03;;;;;;;10.83;2.40;;;;;;;;;;4989526;28;20046;-67
2023/12/25 11:00:30;;;;;;;11.48;2.47;;;;;;;;;;4989858;28;20301;-67
2023/12/25 11:02:57;;;;;;;12.35;2.58;;;;;;;;;;4992816;28;20478;-67
2023/12/25 11:05:24;;;;;;;11.02;2.10;;;;;;;;;;4993310;28;20097;-67
2023/12/25 11:07:52;;;;;;;10.95;2.33;;;;;;;;;;4993472;28;20500;-67
2023/12/25 11:10:18;;;;;;;10.68;2.42;;;;;;;;;;4993494;28;20221;-67
2023/12/25 11:12:44;;;;;;;8.90;2.13;;;;;;;;;;4993211;28;20474;-67
2023/12/25 11:15:11;;;;;;;11.27;2.40;;;;;;;;;;4993744;28;20042;-67
2023/12/25 11:17:37;;;;;;;12.13;2.38;;;;;;;;;;4993599;28;20082;-67
2023/12/25 11:20:03;;;;;;;12.10;2.28;;;;;;;;;;5006976;28;20053;-67
2023/12/25 11:22:30;;;;;;;9.70;2.30;;;;;;;;;;5013246;28;20061;-67
2023/12/25 11:24:57;;;;;;;12.35;2.08;;;;;;;;;;5010777;28;20441;-67
2023/12/25 11:27:26;;;;;;;10.73;2.17;;;;;;;;;;4992843;28;20478;-67
2023/12/25 11:29:51;;;;;;;10.82;2.10;;;;;;;;;;4992927;28;20081;-67
2023/12/25 11:32:18;;;;;;;15.57;2.83;;;;;;;;;;4993247;28;20046;-67
2023/12/25 11:34:48;;;;;;;11.10;2.53;;;;;;;;;;4992877;28;20046;-67
2023/12/25 11:37:21;;;;;;;14.68;1.98;;;;;;;;;;4993162;28;20046;-67
2023/12/25 11:39:54;;;;;;;12.32;1.85;;;;;;;;;;4992681;28;20039;-67
2023/12/25 11:42:20;;;;;;;13.77;2.33;;;;;;;;;;4992697;28;20046;-67
2023/12/25 11:44:48;;;;;;;7.90;1.98;;;;;;;;;;4993147;28;20038;-67
2023/12/25 11:47:14;;;;;;;12.38;2.42;;;;;;;;;;4993068;28;20039;-67
2023/12/25 11:49:40;;;;;;;12.05;2.63;;;;;;;;;;4992587;28;20393;-67
2023/12/25 11:52:06;;;;;;;14.38;2.40;;;;;;;;;;4992560;28;20126;-67
2023/12/25 11:54:36;;;;;;;16.80;2.42;;;;;;;;;;4992858;28;20042;-67
2023/12/25 11:57:17;;;;;;;11.55;2.72;;;;;;;;;;4992667;28;20038;-67
2023/12/25 11:59:46;;;;;;;14.15;2.78;;;;;;;;;;4992559;28;20039;-67
2023/12/25 12:02:12;;;;;;;13.73;2.30;;;;;;;;;;4992836;28;20042;-67
2023/12/25 12:04:39;;;;;;;15.77;2.70;;;;;;;;;;4992302;28;20096;-67
2023/12/25 12:07:05;;;;;;;11.98;2.10;;;;;;;;;;4992726;28;20398;-67
2023/12/25 12:09:31;;;;;;;11.40;2.10;;;;;;;;;;4991235;28;20878;-67
2023/12/25 12:11:57;;;;;;;18.00;2.40;;;;;;;;;;4992184;28;20046;-67
2023/12/25 12:14:24;;;;;;;13.95;2.17;;;;;;;;;;4991631;28;20050;-67
2023/12/25 12:16:51;;;;;;;12.20;2.25;;;;;;;;;;4992477;28;20050;-67
2023/12/25 12:19:18;;;;;;;13.88;2.30;;;;;;;;;;5000805;28;20041;-67
2023/12/25 12:21:44;;;;;;;12.90;2.17;;;;;;;;;;5011681;28;20038;-67
2023/12/25 12:24:23;;;;;;;13.80;2.47;;;;;;;;;;5011677;28;20130;-67
2023/12/25 12:26:49;;;;;;;12.20;2.17;;;;;;;;;;4995166;28;20117;-67
2023/12/25 12:29:15;;;;;;;11.10;2.13;;;;;;;;;;4992200;28;20149;-67
2023/12/25 12:31:42;;;;;;;12.27;2.10;;;;;;;;;;4992099;28;20050;-67
2023/12/25 12:34:08;;;;;;;12.40;2.10;;;;;;;;;;4991867;28;20054;-67
2023/12/25 12:36:34;;;;;;;9.93;2.35;;;;;;;;;;4992077;28;20042;-67
2023/12/25 12:39:00;;;;;;;8.90;2.00;;;;;;;;;;4991918;28;20046;-67
2023/12/25 12:41:26;;;;;;;10.70;2.35;;;;;;;;;;4991579;28;20066;-67
2023/12/25 12:43:59;;;;;;;5.93;1.70;;;;;;;;;;4991638;28;20118;-67
2023/12/25 12:46:25;;;;;;;8.98;1.83;;;;;;;;;;4991737;28;20042;-67
2023/12/25 12:48:51;;;;;;;6.88;1.75;;;;;;;;;;4991274;28;20046;-67
2023/12/25 12:51:17;;;;;;;13.13;2.67;;;;;;;;;;4991801;28;20077;-67
2023/12/25 12:53:43;;;;;;;11.75;2.28;;;;;;;;;;4991742;28;20042;-67
2023/12/25 12:56:11;;;;;;;12.10;2.13;;;;;;;;;;4991370;28;20046;-67
2023/12/25 12:58:37;;;;;;;14.02;2.55;;;;;;;;;;4991538;28;20413;-67
2023/12/25 13:01:03;;;;;;;11.75;2.22;;;;;;;;;;4990390;28;20038;-67
2023/12/25 13:03:29;;;;;;;10.85;2.28;;;;;;;;;;4991100;28;20496;-67
2023/12/25 13:05:55;;;;;;;10.63;2.63;;;;;;;;;;4991485;28;20370;-67
2023/12/25 13:08:21;;;;;;;8.90;2.28;;;;;;;;;;4989984;28;20042;-67
2023/12/25 13:10:48;;;;;;;13.23;2.53;;;;;;;;;;4990949;28;20045;-67
2023/12/25 13:13:14;;;;;;;9.40;2.10;;;;;;;;;;4991160;28;20125;-67
2023/12/25 13:15:40;;;;;;;12.68;2.10;;;;;;;;;;4991562;28;20469;-67
2023/12/25 13:18:06;;;;;;;13.82;2.85;;;;;;;;;;4990924;28;20598;-67
2023/12/25 13:20:32;;;;;;;12.52;2.47;;;;;;;;;;5009375;28;20053;-67
2023/12/25 13:22:58;;;;;;;9.75;2.30;;;;;;;;;;5010708;28;20456;-67
2023/12/25 13:25:24;;;;;;;10.10;2.25;;;;;;;;;;5004681;28;20038;-67
2023/12/25 13:27:50;;;;;;;10.85;2.70;;;;;;;;;;4990869;28;20041;-67
2023/12/25 13:30:16;;;;;;;7.93;2.17;;;;;;;;;;4990639;28;20056;-67
2023/12/25 13:32:42;;;;;;;8.18;1.95;;;;;;;;;;4990966;28;20485;-67
2023/12/25 13:35:08;;;;;;;10.70;2.20;;;;;;;;;;4990578;28;20547;-67
2023/12/25 13:37:34;;;;;;;10.45;1.80;;;;;;;;;;4990912;28;20046;-67
2023/12/25 13:40:01;;;;;;;9.25;2.30;;;;;;;;;;4989314;28;20521;-67
2023/12/25 13:42:30;;;;;;;8.43;1.80;;;;;;;;;;4990241;28;20039;-67
2023/12/25 13:44:57;;;;;;;10.73;1.98;;;;;;;;;;4990983;28;20045;-67
2023/12/25 13:47:23;;;;;;;11.85;2.30;;;;;;;;;;4991018;28;20505;-67
2023/12/25 13:49:49;;;;;;;6.97;1.63;;;;;;;;;;4990228;28;20137;-67
2023/12/25 13:52:16;;;;;;;8.98;1.85;;;;;;;;;;4990607;28;20053;-67
2023/12/25 13:54:42;;;;;;;9.38;1.80;;;;;;;;;;4990630;28;20042;-67
2023/12/25 13:57:08;;;;;;;9.65;1.95;;;;;;;;;;4990554;28;20551;-67
2023/12/25 13:59:34;;;;;;;9.52;2.28;;;;;;;;;;4990461;28;20457;-67
2023/12/25 14:02:00;;;;;;;8.85;2.40;;;;;;;;;;4990699;28;20046;-67
2023/12/25 14:04:26;;;;;;;8.55;2.03;;;;;;;;;;4989939;28;20046;-67
2023/12/25 14:06:53;;;;;;;10.88;1.85;;;;;;;;;;4990470;28;20088;-67
2023/12/25 14:09:19;;;;;;;9.38;1.63;;;;;;;;;;4990349;28;20074;-67
2023/12/25 14:11:45;;;;;;;10.18;2.72;;;;;;;;;;4990175;28;20045;-67
2023/12/25 14:14:11;;;;;;;9.55;2.15;;;;;;;;;;4990437;28;20054;-67
2023/12/25 14:16:37;;;;;;;11.02;2.00;;;;;;;;;;4990492;28;20096;-67
2023/12/25 14:19:03;;;;;;;8.90;2.00;;;;;;;;;;4997308;28;20401;-67
2023/12/25 14:21:29;;;;;;;6.07;1.58;;;;;;;;;;5008666;28;20038;-67
2023/12/25 14:23:56;;;;;;;7.00;1.70;;;;;;;;;;5009952;28;20125;-67
2023/12/25 14:26:22;;;;;;;9.00;1.77;;;;;;;;;;4997041;28;20038;-67
2023/12/25 14:28:48;;;;;;;8.57;1.80;;;;;;;;;;4990217;28;20038;-67
2023/12/25 14:31:14;;;;;;;9.68;1.70;;;;;;;;;;4989959;28;20524;-67